DTTK

Kairouan Airport

Kairouan, Tunisia
METAR DTTK 250000Z AUTO 00000KT NCD 19/07 Q1017
Observed Flight Rules
Apr-25 @ 00:00 UTC (48 minutes ago)
Clouds
  • Clear skies
Temperatures Readings
Current 19°C / 66°F
Dewpoint 7°C / 45°F
Humidity 46%
Altimeter 30.03" Hg
Pressure 1017 hPa
Elevation 68
METAR DTTK 250000Z AUTO 00000KT NCD 19/07 Q1017
Observed Flight Rules
Apr-25 @ 00:00 UTC
(48 minutes ago)
Clouds
  • Clear skies
Temperature Dewpoint
19°C / 66°F 7°C / 45°F
Humidity Altimeter Pressure
46% 30.03" Hg 1017 hPa